createdAt,value
2023-04-11T00:00:53.250Z,5.89
2023-04-11T00:03:57.121Z,5.83
2023-04-11T00:07:00.358Z,5.83
2023-04-11T00:10:03.154Z,6.03
2023-04-11T00:13:07.471Z,6.23
2023-04-11T00:16:10.206Z,6.12
2023-04-11T00:19:12.584Z,5.93
2023-04-11T00:22:18.787Z,5.73
2023-04-11T00:25:21.152Z,5.84
2023-04-11T00:28:23.459Z,5.69
2023-04-11T00:31:25.813Z,5.60
2023-04-11T00:34:28.690Z,5.94
2023-04-11T00:37:36.369Z,5.95
2023-04-11T00:40:39.315Z,5.89
2023-04-11T00:43:41.648Z,5.67
2023-04-11T00:46:46.306Z,5.68
2023-04-11T00:49:48.830Z,5.61
2023-04-11T00:52:53.279Z,5.63
2023-04-11T00:55:55.825Z,5.61
2023-04-11T00:58:58.270Z,5.51
2023-04-11T01:02:01.824Z,5.38
2023-04-11T01:05:05.508Z,5.33
2023-04-11T01:08:08.493Z,5.38
2023-04-11T01:11:12.854Z,5.43
2023-04-11T01:14:17.775Z,5.24
2023-04-11T01:17:21.954Z,5.26
2023-04-11T01:20:24.447Z,5.22
2023-04-11T01:23:28.156Z,5.20
2023-04-11T01:26:31.049Z,5.24
2023-04-11T01:29:33.610Z,5.21
2023-04-11T01:32:35.982Z,5.11
2023-04-11T01:35:38.435Z,5.34
2023-04-11T01:38:41.067Z,5.28
2023-04-11T01:41:46.150Z,5.26
2023-04-11T01:44:51.173Z,5.09
2023-04-11T01:47:56.302Z,5.07
2023-04-11T01:51:00.746Z,4.91
2023-04-11T01:54:05.862Z,5.13
2023-04-11T01:57:08.197Z,5.13
2023-04-11T02:00:11.945Z,5.01
2023-04-11T02:03:18.893Z,4.89
2023-04-11T02:06:21.340Z,4.65
2023-04-11T02:09:23.582Z,4.81
2023-04-11T02:12:27.773Z,4.92
2023-04-11T02:15:30.173Z,4.87
2023-04-11T02:18:33.019Z,4.90
2023-04-11T02:21:35.580Z,4.85
2023-04-11T02:24:38.432Z,4.81
2023-04-11T02:27:40.730Z,4.64
2023-04-11T02:30:43.192Z,4.53
2023-04-11T02:33:46.376Z,4.42
2023-04-11T02:36:49.124Z,4.47
2023-04-11T02:39:51.417Z,4.43
2023-04-11T02:42:53.758Z,4.70
2023-04-11T02:46:02.300Z,4.76
2023-04-11T02:49:08.802Z,4.54
2023-04-11T02:52:11.664Z,4.43
2023-04-11T02:55:13.985Z,4.39
2023-04-11T02:58:17.921Z,4.41
2023-04-11T03:01:24.922Z,4.39
2023-04-11T03:04:28.784Z,4.38
2023-04-11T03:07:51.435Z,4.32
2023-04-11T03:10:54.226Z,4.25
2023-04-11T03:13:58.937Z,4.37
2023-04-11T03:17:01.167Z,4.29
2023-04-11T03:20:08.046Z,4.51
2023-04-11T03:23:10.967Z,4.55
2023-04-11T03:26:14.504Z,4.44
2023-04-11T03:29:18.420Z,4.36
2023-04-11T03:32:41.955Z,4.38
2023-04-11T03:35:44.893Z,4.45
2023-04-11T03:38:47.281Z,4.46
2023-04-11T03:41:49.587Z,4.31
2023-04-11T03:44:52.045Z,4.33
2023-04-11T03:47:54.959Z,4.38
2023-04-11T03:51:01.161Z,4.37
2023-04-11T03:54:12.790Z,4.24
2023-04-11T03:57:16.957Z,4.33
2023-04-11T04:00:20.758Z,4.24
2023-04-11T04:03:35.118Z,4.33
2023-04-11T04:06:38.660Z,4.35
2023-04-11T04:09:42.276Z,4.35
2023-04-11T04:12:45.784Z,4.35
2023-04-11T04:15:54.407Z,4.23
2023-04-11T04:19:03.621Z,4.41
2023-04-11T04:22:11.850Z,4.41
2023-04-11T04:25:20.135Z,4.41
2023-04-11T04:28:26.205Z,4.44
2023-04-11T04:31:34.019Z,4.47
2023-04-11T04:34:46.952Z,4.83
2023-04-11T04:37:55.025Z,5.20
2023-04-11T04:41:15.272Z,5.35
2023-04-11T04:44:25.120Z,5.49
2023-04-11T04:47:33.724Z,5.52
2023-04-11T04:50:36.371Z,5.68
2023-04-11T04:53:38.961Z,5.69
2023-04-11T04:56:44.044Z,5.82
2023-04-11T04:59:47.365Z,5.86
2023-04-11T05:02:54.939Z,6.08
2023-04-11T05:05:59.614Z,6.30
2023-04-11T05:09:02.751Z,6.51
2023-04-11T05:12:07.115Z,6.64
2023-04-11T05:15:12.140Z,6.94
2023-04-11T05:18:16.444Z,7.08
2023-04-11T05:21:19.166Z,7.44
2023-04-11T05:24:25.824Z,7.79
2023-04-11T05:27:28.879Z,8.13
2023-04-11T05:30:31.740Z,8.29
2023-04-11T05:33:38.281Z,8.27
2023-04-11T05:36:42.100Z,8.68
2023-04-11T05:39:44.437Z,8.68
2023-04-11T05:42:46.724Z,9.09
2023-04-11T05:45:49.609Z,9.25
2023-04-11T05:48:52.315Z,9.30
2023-04-11T05:51:54.803Z,9.19
2023-04-11T05:54:57.252Z,9.49
2023-04-11T05:57:59.520Z,10.23
2023-04-11T06:01:01.857Z,10.09
2023-04-11T06:04:04.418Z,10.65
2023-04-11T06:07:08.340Z,10.98
2023-04-11T06:10:11.366Z,10.65
2023-04-11T06:13:13.702Z,10.91
2023-04-11T06:16:16.338Z,11.08
2023-04-11T06:19:18.768Z,10.83
2023-04-11T06:22:24.096Z,11.25
2023-04-11T06:25:26.566Z,11.57
2023-04-11T06:28:28.982Z,11.29
2023-04-11T06:31:31.276Z,11.00
2023-04-11T06:34:34.528Z,11.05
2023-04-11T06:37:36.886Z,11.53
2023-04-11T06:40:39.195Z,11.77
2023-04-11T06:43:41.406Z,12.11
2023-04-11T06:46:43.826Z,12.88
2023-04-11T06:49:47.121Z,13.47
2023-04-11T06:52:49.396Z,13.68
2023-04-11T06:55:51.858Z,13.66
2023-04-11T06:58:54.643Z,13.14
2023-04-11T07:01:57.799Z,13.47
2023-04-11T07:05:00.315Z,13.62
2023-04-11T07:08:02.667Z,14.72
2023-04-11T07:11:08.008Z,14.95
2023-04-11T07:14:10.313Z,15.06
2023-04-11T07:17:12.566Z,15.43
2023-04-11T07:20:14.896Z,15.80
2023-04-11T07:23:17.283Z,16.38
2023-04-11T07:26:19.609Z,17.42
2023-04-11T07:29:21.818Z,17.67
2023-04-11T07:32:24.871Z,16.84
2023-04-11T07:35:28.548Z,16.33
2023-04-11T07:38:34.247Z,16.11
2023-04-11T07:41:37.275Z,15.96
2023-04-11T07:44:39.545Z,15.57
2023-04-11T07:47:41.881Z,15.04
2023-04-11T07:50:44.243Z,14.52
2023-04-11T07:53:46.593Z,14.78
2023-04-11T07:56:48.852Z,14.71
2023-04-11T07:59:51.186Z,14.87
2023-04-11T08:02:53.719Z,14.58
2023-04-11T08:05:56.263Z,14.63
2023-04-11T08:08:58.852Z,14.48
2023-04-11T08:12:01.746Z,14.29
2023-04-11T08:15:05.038Z,14.67
2023-04-11T08:18:07.446Z,14.89
2023-04-11T08:21:11.553Z,15.04
2023-04-11T08:24:13.994Z,15.16
2023-04-11T08:27:16.255Z,14.75
2023-04-11T08:30:18.632Z,14.28
2023-04-11T08:33:27.751Z,14.77
2023-04-11T08:36:31.257Z,15.40
2023-04-11T08:39:33.437Z,16.11
2023-04-11T08:42:36.144Z,16.33
2023-04-11T08:45:39.826Z,16.48
2023-04-11T08:48:42.163Z,15.38
2023-04-11T08:51:44.815Z,15.62
2023-04-11T08:54:56.657Z,15.72
2023-04-11T08:58:03.059Z,15.84
2023-04-11T09:01:24.796Z,15.97
2023-04-11T09:04:40.859Z,16.11
2023-04-11T09:07:52.167Z,15.93
2023-04-11T09:11:01.529Z,16.17
2023-04-11T09:14:07.635Z,16.11
2023-04-11T09:17:13.693Z,15.69
2023-04-11T09:20:18.116Z,15.88
2023-04-11T09:23:24.255Z,15.72
2023-04-11T09:26:29.795Z,15.61
2023-04-11T09:29:40.586Z,15.85
2023-04-11T09:32:42.965Z,16.01
2023-04-11T09:35:47.920Z,16.33
2023-04-11T09:38:51.528Z,16.35
2023-04-11T09:41:53.829Z,16.06
2023-04-11T09:44:56.130Z,16.45
2023-04-11T09:47:59.932Z,17.17
2023-04-11T09:51:05.726Z,17.42
2023-04-11T09:54:08.556Z,17.78
2023-04-11T09:57:12.478Z,18.58
2023-04-11T10:00:36.021Z,18.82
2023-04-11T10:03:40.087Z,18.76
2023-04-11T10:06:50.137Z,18.35
2023-04-11T10:09:53.406Z,17.79
2023-04-11T10:12:58.493Z,17.81
2023-04-11T10:16:13.689Z,17.62
2023-04-11T10:19:19.189Z,17.87
2023-04-11T10:22:43.686Z,17.57
2023-04-11T10:26:00.041Z,16.97
2023-04-11T10:29:02.355Z,16.96
2023-04-11T10:32:16.569Z,17.57
2023-04-11T10:35:18.807Z,17.26
2023-04-11T10:38:40.083Z,17.69
2023-04-11T10:41:42.377Z,17.67
2023-04-11T10:44:44.713Z,17.20
2023-04-11T10:48:07.583Z,17.61
2023-04-11T10:51:24.660Z,17.15
2023-04-11T10:54:28.260Z,17.22
2023-04-11T10:58:07.131Z,17.15
2023-04-11T11:01:25.831Z,16.67
2023-04-11T11:04:38.898Z,17.10
2023-04-11T11:07:46.336Z,17.42
2023-04-11T11:10:48.636Z,17.35
2023-04-11T11:13:53.673Z,16.88
2023-04-11T11:16:56.127Z,17.27
2023-04-11T11:19:58.459Z,17.36
2023-04-11T11:23:09.109Z,17.06
2023-04-11T11:26:11.419Z,17.45
2023-04-11T11:29:13.800Z,17.33
2023-04-11T11:32:26.440Z,17.67
2023-04-11T11:35:28.959Z,18.36
2023-04-11T11:38:31.704Z,17.77
2023-04-11T11:41:35.537Z,18.00
2023-04-11T11:44:38.124Z,18.36
2023-04-11T11:47:45.184Z,18.86
2023-04-11T11:50:47.568Z,18.76
2023-04-11T11:54:10.108Z,19.13
2023-04-11T11:57:12.756Z,18.32
2023-04-11T12:00:25.986Z,18.71
2023-04-11T12:03:29.888Z,18.56
2023-04-11T12:06:32.976Z,18.67
2023-04-11T12:09:38.047Z,18.27
2023-04-11T12:12:42.075Z,18.60
2023-04-11T12:15:46.558Z,18.18
2023-04-11T12:18:48.865Z,18.50
2023-04-11T12:21:53.162Z,18.54
2023-04-11T12:25:12.115Z,19.06
2023-04-11T12:28:14.481Z,18.93
2023-04-11T12:31:17.518Z,19.33
2023-04-11T12:34:19.847Z,19.51
2023-04-11T12:37:22.225Z,19.08
2023-04-11T12:40:25.396Z,19.38
2023-04-11T12:43:27.877Z,19.40
2023-04-11T12:46:30.424Z,19.16
2023-04-11T12:49:32.726Z,19.19
2023-04-11T12:52:36.015Z,19.12
2023-04-11T12:55:38.359Z,19.00
2023-04-11T12:58:40.770Z,18.96
2023-04-11T13:01:43.667Z,18.97
2023-04-11T13:04:47.033Z,19.10
2023-04-11T13:07:49.554Z,19.08
2023-04-11T13:10:52.641Z,19.09
2023-04-11T13:13:55.728Z,19.04
2023-04-11T13:16:58.079Z,18.82
2023-04-11T13:20:00.501Z,18.88
2023-04-11T13:23:02.807Z,18.41
2023-04-11T13:26:07.065Z,18.41
2023-04-11T13:29:09.405Z,18.38
2023-04-11T13:32:11.681Z,18.66
2023-04-11T13:35:13.963Z,18.47
2023-04-11T13:38:16.389Z,18.47
2023-04-11T13:41:18.684Z,18.59
2023-04-11T13:44:21.134Z,18.75
2023-04-11T13:47:23.541Z,18.62
2023-04-11T13:50:25.910Z,18.40
2023-04-11T13:53:28.623Z,18.22
2023-04-11T13:56:30.941Z,18.26
2023-04-11T13:59:33.244Z,18.26
2023-04-11T14:02:35.793Z,18.33
2023-04-11T14:05:38.506Z,18.56
2023-04-11T14:08:40.888Z,18.35
2023-04-11T14:11:43.176Z,18.34
2023-04-11T14:14:45.450Z,18.02
2023-04-11T14:17:48.239Z,17.87
2023-04-11T14:20:50.744Z,17.68
2023-04-11T14:23:53.209Z,17.41
2023-04-11T14:26:56.299Z,17.17
2023-04-11T14:29:58.794Z,16.84
2023-04-11T14:33:01.231Z,16.52
2023-04-11T14:36:03.752Z,16.44
2023-04-11T14:39:06.191Z,16.24
2023-04-11T14:42:09.907Z,15.79
2023-04-11T14:45:12.232Z,15.84
2023-04-11T14:48:14.710Z,15.67
2023-04-11T14:51:16.929Z,15.18
2023-04-11T14:54:19.252Z,15.12
2023-04-11T14:57:22.901Z,14.91
2023-04-11T15:00:25.332Z,14.95
2023-04-11T15:03:28.035Z,14.85
2023-04-11T15:06:31.745Z,14.71
2023-04-11T15:09:34.662Z,14.57
2023-04-11T15:12:37.055Z,14.29
2023-04-11T15:15:39.346Z,14.10
2023-04-11T15:18:41.632Z,13.96
2023-04-11T15:21:46.231Z,13.76
2023-04-11T15:24:48.545Z,13.48
2023-04-11T15:27:51.118Z,13.36
2023-04-11T15:30:54.988Z,12.64
2023-04-11T15:33:59.877Z,12.26
2023-04-11T15:37:02.180Z,12.17
2023-04-11T15:40:10.966Z,11.95
2023-04-11T15:43:13.308Z,11.66
2023-04-11T15:46:16.466Z,11.69
2023-04-11T15:49:18.780Z,11.55
2023-04-11T15:52:21.487Z,11.50
2023-04-11T15:55:24.000Z,11.53
2023-04-11T15:58:27.755Z,11.41
2023-04-11T16:01:31.206Z,11.31
2023-04-11T16:04:38.631Z,11.31
2023-04-11T16:07:42.395Z,11.22
2023-04-11T16:10:44.689Z,11.15
2023-04-11T16:13:47.046Z,11.16
2023-04-11T16:16:49.417Z,11.13
2023-04-11T16:19:53.513Z,11.21
2023-04-11T16:22:56.106Z,11.30
2023-04-11T16:25:58.414Z,11.26
2023-04-11T16:29:01.050Z,11.22
2023-04-11T16:32:03.987Z,11.28
2023-04-11T16:35:07.115Z,11.28
2023-04-11T16:38:09.372Z,11.41
2023-04-11T16:41:11.664Z,11.33
2023-04-11T16:44:14.136Z,11.32
2023-04-11T16:47:16.535Z,11.32
2023-04-11T16:50:19.030Z,11.34
2023-04-11T16:53:21.365Z,11.24
2023-04-11T16:56:25.221Z,11.28
2023-04-11T16:59:28.584Z,11.31
2023-04-11T17:02:31.017Z,11.34
2023-04-11T17:05:34.422Z,11.30
2023-04-11T17:08:36.636Z,11.20
2023-04-11T17:11:39.671Z,11.18
2023-04-11T17:14:42.060Z,11.22
2023-04-11T17:17:44.441Z,11.41
2023-04-11T17:20:47.600Z,11.24
2023-04-11T17:23:50.757Z,11.29
2023-04-11T17:26:53.284Z,11.45
2023-04-11T17:29:55.494Z,11.36
2023-04-11T17:32:58.446Z,11.42
2023-04-11T17:36:00.921Z,11.37
2023-04-11T17:39:04.419Z,11.28
2023-04-11T17:42:06.852Z,10.98
2023-04-11T17:45:17.539Z,11.15
2023-04-11T17:48:23.107Z,11.13
2023-04-11T17:51:27.587Z,11.14
2023-04-11T17:54:30.574Z,11.16
2023-04-11T17:57:33.014Z,11.16
2023-04-11T18:00:45.154Z,11.14
2023-04-11T18:03:55.363Z,11.36
2023-04-11T18:06:58.311Z,11.29
2023-04-11T18:10:01.354Z,11.10
2023-04-11T18:13:06.443Z,11.12
2023-04-11T18:16:10.050Z,11.07
2023-04-11T18:19:12.393Z,10.91
2023-04-11T18:22:14.746Z,10.80
2023-04-11T18:25:17.582Z,10.66
2023-04-11T18:28:19.836Z,10.58
2023-04-11T18:31:22.209Z,10.51
2023-04-11T18:34:24.512Z,10.43
2023-04-11T18:37:26.859Z,10.35
2023-04-11T18:40:29.822Z,10.28
2023-04-11T18:43:32.392Z,10.21
2023-04-11T18:46:35.595Z,10.19
2023-04-11T18:49:38.126Z,10.15
2023-04-11T18:52:40.623Z,10.16
2023-04-11T18:55:42.906Z,10.13
2023-04-11T18:58:47.531Z,10.17
2023-04-11T19:01:52.933Z,10.07
2023-04-11T19:04:55.711Z,10.00
2023-04-11T19:07:59.570Z,9.90
2023-04-11T19:11:02.069Z,9.83
2023-04-11T19:14:05.069Z,9.73
2023-04-11T19:17:07.489Z,9.68
2023-04-11T19:20:13.228Z,9.50
2023-04-11T19:23:15.873Z,9.47
2023-04-11T19:26:18.438Z,9.35
2023-04-11T19:29:20.890Z,9.15
2023-04-11T19:32:23.134Z,9.23
2023-04-11T19:35:25.480Z,9.37
2023-04-11T19:38:27.783Z,9.41
2023-04-11T19:41:30.105Z,9.49
2023-04-11T19:44:34.806Z,9.49
2023-04-11T19:47:37.222Z,9.43
2023-04-11T19:50:42.666Z,9.36
2023-04-11T19:53:44.989Z,9.23
2023-04-11T19:56:49.268Z,9.17
2023-04-11T19:59:51.552Z,9.00
2023-04-11T20:02:53.876Z,8.96
2023-04-11T20:05:56.703Z,8.92
2023-04-11T20:08:58.962Z,9.02
2023-04-11T20:12:01.685Z,9.01
2023-04-11T20:15:04.314Z,9.07
2023-04-11T20:18:06.824Z,9.08
2023-04-11T20:21:09.482Z,9.08
2023-04-11T20:24:15.483Z,9.11
2023-04-11T20:27:17.900Z,9.32
2023-04-11T20:30:21.001Z,9.31
2023-04-11T20:33:23.225Z,9.24
2023-04-11T20:36:25.530Z,9.17
2023-04-11T20:39:27.929Z,9.04
2023-04-11T20:42:31.762Z,8.98
2023-04-11T20:45:34.143Z,8.81
2023-04-11T20:48:37.795Z,8.75
2023-04-11T20:51:40.076Z,8.67
2023-04-11T20:54:42.302Z,8.61
2023-04-11T20:57:45.124Z,8.46
2023-04-11T21:00:47.845Z,8.48
2023-04-11T21:03:51.357Z,8.36
2023-04-11T21:06:53.745Z,8.34
2023-04-11T21:09:56.423Z,8.24
2023-04-11T21:12:58.713Z,8.12
2023-04-11T21:16:01.060Z,8.02
2023-04-11T21:19:03.303Z,7.94
2023-04-11T21:22:06.394Z,7.96
2023-04-11T21:25:11.228Z,8.04
2023-04-11T21:28:13.728Z,7.98
2023-04-11T21:31:16.082Z,7.99
2023-04-11T21:34:18.555Z,7.84
2023-04-11T21:37:21.056Z,7.80
2023-04-11T21:40:23.457Z,7.78
2023-04-11T21:43:26.000Z,7.82
2023-04-11T21:46:28.426Z,7.72
2023-04-11T21:49:30.661Z,7.70
2023-04-11T21:52:32.938Z,7.63
2023-04-11T21:55:35.261Z,7.55
2023-04-11T21:58:37.776Z,7.49
2023-04-11T22:01:41.617Z,7.40
2023-04-11T22:04:56.368Z,7.48
2023-04-11T22:08:14.736Z,7.53
2023-04-11T22:11:20.449Z,7.56
2023-04-11T22:14:27.123Z,7.46
2023-04-11T22:17:31.450Z,7.30
2023-04-11T22:20:34.396Z,7.27
2023-04-11T22:23:36.683Z,7.15
2023-04-11T22:26:42.774Z,7.11
2023-04-11T22:29:46.422Z,7.14
2023-04-11T22:32:48.994Z,7.07
2023-04-11T22:35:51.267Z,7.01
2023-04-11T22:38:53.651Z,7.02
2023-04-11T22:41:55.930Z,6.96
2023-04-11T22:44:58.451Z,6.93
2023-04-11T22:48:00.789Z,6.94
2023-04-11T22:51:05.969Z,6.86
2023-04-11T22:54:09.653Z,6.81
2023-04-11T22:57:11.893Z,6.79
2023-04-11T23:00:16.493Z,6.79
2023-04-11T23:03:19.214Z,6.72
2023-04-11T23:06:21.532Z,6.67
2023-04-11T23:09:23.906Z,6.61
2023-04-11T23:12:27.322Z,6.61
2023-04-11T23:15:30.361Z,6.58
2023-04-11T23:18:33.999Z,6.58
2023-04-11T23:21:41.149Z,6.55
2023-04-11T23:24:43.480Z,6.57
2023-04-11T23:27:45.978Z,6.55
2023-04-11T23:30:48.737Z,6.47
2023-04-11T23:33:50.974Z,6.54
2023-04-11T23:36:53.283Z,6.40
2023-04-11T23:39:55.565Z,6.52
2023-04-11T23:42:58.235Z,6.48
2023-04-11T23:46:00.942Z,6.35
2023-04-11T23:49:05.002Z,6.39
2023-04-11T23:52:07.746Z,6.38
2023-04-11T23:55:10.662Z,6.26
2023-04-11T23:58:13.178Z,6.23
